PH-0105 weather

Samal (Bataan 2020) Airstrip
Samal (Bataan Province), Philippines

Public forecast

Using degrees Celsius for public forecast. Weather courtesy of forecast.io.

METAR (pilot weather report)

Closest report is Subic Bay International Airport, 13.8 nm (25.5 km) W. Retrieved 2019/09/23 10:00 UTC (54 seconds ago):

RPLB 231000Z VRB02KT 9999 FEW020 BKN300 29/24 Q1013 NOSIG RMK A2991

TAF (pilot weather forecast)

Closest forecast is Subic Bay International Airport, 13.8 nm (25.5 km) W. Retrieved 2019/09/23 06:00 UTC (4 hours ago):

TAF RPLB 230500Z 2306/2406 21004KT 9999 FEW020 TX32/2306Z TN24/2322Z TEMPO 2306/2312 06008KT FEW020 SCT080 BKN300